sensor_id;sensor_type;location;lat;lon;timestamp;P1;durP1;ratioP1;P2;durP2;ratioP2
78844;SDS011;68195;50.854;2.860;2023-03-29T00:02:04;5.78;;;2.70;;
78844;SDS011;68195;50.854;2.860;2023-03-29T00:04:33;4.50;;;3.20;;
78844;SDS011;68195;50.854;2.860;2023-03-29T00:06:58;3.83;;;2.65;;
78844;SDS011;68195;50.854;2.860;2023-03-29T00:09:28;9.10;;;3.25;;
78844;SDS011;68195;50.854;2.860;2023-03-29T00:11:55;3.47;;;2.55;;
78844;SDS011;68195;50.854;2.860;2023-03-29T00:14:23;4.57;;;2.78;;
78844;SDS011;68195;50.854;2.860;2023-03-29T00:16:50;5.28;;;2.80;;
78844;SDS011;68195;50.854;2.860;2023-03-29T00:19:18;4.60;;;3.05;;
78844;SDS011;68195;50.854;2.860;2023-03-29T00:21:43;3.70;;;2.50;;
78844;SDS011;68195;50.854;2.860;2023-03-29T00:24:14;4.68;;;2.92;;
78844;SDS011;68195;50.854;2.860;2023-03-29T00:26:42;5.85;;;3.70;;
78844;SDS011;68195;50.854;2.860;2023-03-29T00:29:10;5.80;;;2.67;;
78844;SDS011;68195;50.854;2.860;2023-03-29T00:31:38;5.50;;;2.75;;
78844;SDS011;68195;50.854;2.860;2023-03-29T00:34:03;4.45;;;2.83;;
78844;SDS011;68195;50.854;2.860;2023-03-29T00:36:31;7.30;;;3.05;;
78844;SDS011;68195;50.854;2.860;2023-03-29T00:38:59;5.20;;;2.65;;
78844;SDS011;68195;50.854;2.860;2023-03-29T00:41:24;4.13;;;2.83;;
78844;SDS011;68195;50.854;2.860;2023-03-29T00:46:21;4.10;;;2.60;;
78844;SDS011;68195;50.854;2.860;2023-03-29T00:48:48;7.78;;;2.70;;
78844;SDS011;68195;50.854;2.860;2023-03-29T00:51:16;6.00;;;2.75;;
78844;SDS011;68195;50.854;2.860;2023-03-29T00:53:49;5.15;;;2.67;;
78844;SDS011;68195;50.854;2.860;2023-03-29T00:58:50;3.70;;;2.60;;
78844;SDS011;68195;50.854;2.860;2023-03-29T01:01:28;4.63;;;2.55;;
78844;SDS011;68195;50.854;2.860;2023-03-29T01:04:52;4.40;;;2.35;;
78844;SDS011;68195;50.854;2.860;2023-03-29T01:07:15;5.35;;;2.67;;
78844;SDS011;68195;50.854;2.860;2023-03-29T01:10:00;3.80;;;2.45;;
78844;SDS011;68195;50.854;2.860;2023-03-29T01:12:38;4.22;;;2.92;;
78844;SDS011;68195;50.854;2.860;2023-03-29T01:15:11;4.95;;;2.92;;
78844;SDS011;68195;50.854;2.860;2023-03-29T01:17:42;3.55;;;2.60;;
78844;SDS011;68195;50.854;2.860;2023-03-29T01:28:39;4.20;;;2.83;;
78844;SDS011;68195;50.854;2.860;2023-03-29T01:31:16;4.32;;;2.97;;
78844;SDS011;68195;50.854;2.860;2023-03-29T01:34:02;4.30;;;2.55;;
78844;SDS011;68195;50.854;2.860;2023-03-29T01:36:47;5.22;;;2.65;;
78844;SDS011;68195;50.854;2.860;2023-03-29T01:39:15;6.50;;;3.30;;
78844;SDS011;68195;50.854;2.860;2023-03-29T01:44:58;6.22;;;3.00;;
78844;SDS011;68195;50.854;2.860;2023-03-29T01:50:11;4.75;;;2.70;;
78844;SDS011;68195;50.854;2.860;2023-03-29T01:52:39;4.78;;;2.70;;
78844;SDS011;68195;50.854;2.860;2023-03-29T01:55:12;6.93;;;3.08;;
78844;SDS011;68195;50.854;2.860;2023-03-29T01:57:42;3.38;;;2.20;;
78844;SDS011;68195;50.854;2.860;2023-03-29T02:00:13;5.03;;;2.50;;
78844;SDS011;68195;50.854;2.860;2023-03-29T02:02:40;4.78;;;2.80;;
78844;SDS011;68195;50.854;2.860;2023-03-29T02:05:10;4.20;;;2.97;;
78844;SDS011;68195;50.854;2.860;2023-03-29T02:07:38;5.97;;;3.05;;
78844;SDS011;68195;50.854;2.860;2023-03-29T02:10:07;7.55;;;3.13;;
78844;SDS011;68195;50.854;2.860;2023-03-29T02:12:37;4.55;;;3.00;;
78844;SDS011;68195;50.854;2.860;2023-03-29T02:15:03;6.20;;;2.88;;
78844;SDS011;68195;50.854;2.860;2023-03-29T02:17:31;4.38;;;3.33;;
78844;SDS011;68195;50.854;2.860;2023-03-29T02:19:59;6.63;;;2.92;;
78844;SDS011;68195;50.854;2.860;2023-03-29T02:25:33;7.13;;;3.25;;
78844;SDS011;68195;50.854;2.860;2023-03-29T02:28:02;5.60;;;2.92;;
78844;SDS011;68195;50.854;2.860;2023-03-29T02:30:31;5.45;;;2.53;;
78844;SDS011;68195;50.854;2.860;2023-03-29T02:33:15;6.22;;;3.05;;
78844;SDS011;68195;50.854;2.860;2023-03-29T02:35:56;4.43;;;2.97;;
78844;SDS011;68195;50.854;2.860;2023-03-29T02:38:30;4.93;;;2.50;;
78844;SDS011;68195;50.854;2.860;2023-03-29T02:40:59;6.07;;;3.13;;
78844;SDS011;68195;50.854;2.860;2023-03-29T02:43:27;5.82;;;3.40;;
78844;SDS011;68195;50.854;2.860;2023-03-29T02:45:59;3.78;;;3.00;;
78844;SDS011;68195;50.854;2.860;2023-03-29T02:48:25;5.88;;;3.33;;
78844;SDS011;68195;50.854;2.860;2023-03-29T02:50:54;6.72;;;3.17;;
78844;SDS011;68195;50.854;2.860;2023-03-29T02:53:27;5.25;;;3.40;;
78844;SDS011;68195;50.854;2.860;2023-03-29T02:58:29;5.30;;;2.92;;
78844;SDS011;68195;50.854;2.860;2023-03-29T03:00:55;5.95;;;3.00;;
78844;SDS011;68195;50.854;2.860;2023-03-29T03:03:25;5.90;;;3.20;;
78844;SDS011;68195;50.854;2.860;2023-03-29T03:05:51;7.25;;;3.05;;
78844;SDS011;68195;50.854;2.860;2023-03-29T03:08:17;6.30;;;3.47;;
78844;SDS011;68195;50.854;2.860;2023-03-29T03:10:43;6.65;;;3.28;;
78844;SDS011;68195;50.854;2.860;2023-03-29T03:13:10;6.45;;;3.42;;
78844;SDS011;68195;50.854;2.860;2023-03-29T03:15:35;5.22;;;2.97;;
78844;SDS011;68195;50.854;2.860;2023-03-29T03:18:01;5.57;;;3.05;;
78844;SDS011;68195;50.854;2.860;2023-03-29T03:20:27;6.15;;;3.53;;
78844;SDS011;68195;50.854;2.860;2023-03-29T03:22:53;6.43;;;3.45;;
78844;SDS011;68195;50.854;2.860;2023-03-29T03:25:21;4.35;;;2.70;;
78844;SDS011;68195;50.854;2.860;2023-03-29T03:27:48;5.18;;;3.08;;
78844;SDS011;68195;50.854;2.860;2023-03-29T03:30:15;4.88;;;3.00;;
78844;SDS011;68195;50.854;2.860;2023-03-29T03:32:41;4.05;;;2.80;;
78844;SDS011;68195;50.854;2.860;2023-03-29T03:35:10;7.03;;;3.20;;
78844;SDS011;68195;50.854;2.860;2023-03-29T03:37:35;5.10;;;2.83;;
78844;SDS011;68195;50.854;2.860;2023-03-29T03:40:02;5.60;;;3.17;;
78844;SDS011;68195;50.854;2.860;2023-03-29T03:42:29;5.55;;;3.10;;
78844;SDS011;68195;50.854;2.860;2023-03-29T03:44:55;4.30;;;2.95;;
78844;SDS011;68195;50.854;2.860;2023-03-29T03:47:21;5.03;;;3.38;;
78844;SDS011;68195;50.854;2.860;2023-03-29T03:49:49;5.72;;;3.00;;
78844;SDS011;68195;50.854;2.860;2023-03-29T03:52:15;5.32;;;2.75;;
78844;SDS011;68195;50.854;2.860;2023-03-29T03:54:41;5.15;;;3.20;;
78844;SDS011;68195;50.854;2.860;2023-03-29T03:57:07;5.00;;;2.95;;
78844;SDS011;68195;50.854;2.860;2023-03-29T03:59:35;6.07;;;3.33;;
78844;SDS011;68195;50.854;2.860;2023-03-29T04:02:02;4.88;;;2.60;;
78844;SDS011;68195;50.854;2.860;2023-03-29T04:04:28;6.90;;;3.20;;
78844;SDS011;68195;50.854;2.860;2023-03-29T04:06:54;4.63;;;3.15;;
78844;SDS011;68195;50.854;2.860;2023-03-29T04:09:26;4.97;;;2.90;;
78844;SDS011;68195;50.854;2.860;2023-03-29T04:11:53;5.47;;;3.00;;
78844;SDS011;68195;50.854;2.860;2023-03-29T04:14:21;4.15;;;2.60;;
78844;SDS011;68195;50.854;2.860;2023-03-29T04:16:46;5.07;;;2.83;;
78844;SDS011;68195;50.854;2.860;2023-03-29T04:19:12;4.93;;;3.28;;
78844;SDS011;68195;50.854;2.860;2023-03-29T04:21:37;6.35;;;2.70;;
78844;SDS011;68195;50.854;2.860;2023-03-29T04:24:03;4.45;;;3.00;;
78844;SDS011;68195;50.854;2.860;2023-03-29T04:26:28;5.45;;;3.13;;
78844;SDS011;68195;50.854;2.860;2023-03-29T04:28:54;4.57;;;3.10;;
78844;SDS011;68195;50.854;2.860;2023-03-29T04:31:19;6.30;;;3.35;;
78844;SDS011;68195;50.854;2.860;2023-03-29T04:33:45;5.88;;;3.00;;
78844;SDS011;68195;50.854;2.860;2023-03-29T04:36:11;5.95;;;3.45;;
78844;SDS011;68195;50.854;2.860;2023-03-29T04:38:38;5.97;;;3.30;;
78844;SDS011;68195;50.854;2.860;2023-03-29T04:41:08;5.18;;;3.22;;
78844;SDS011;68195;50.854;2.860;2023-03-29T04:43:36;6.25;;;3.55;;
78844;SDS011;68195;50.854;2.860;2023-03-29T04:46:01;6.72;;;2.95;;
78844;SDS011;68195;50.854;2.860;2023-03-29T04:48:31;5.28;;;2.90;;
78844;SDS011;68195;50.854;2.860;2023-03-29T04:53:22;6.93;;;3.35;;
78844;SDS011;68195;50.854;2.860;2023-03-29T04:55:50;5.60;;;3.33;;
78844;SDS011;68195;50.854;2.860;2023-03-29T04:58:19;5.38;;;3.45;;
78844;SDS011;68195;50.854;2.860;2023-03-29T05:00:47;5.05;;;3.22;;
78844;SDS011;68195;50.854;2.860;2023-03-29T05:03:15;5.20;;;2.80;;
78844;SDS011;68195;50.854;2.860;2023-03-29T05:05:41;5.03;;;3.35;;
78844;SDS011;68195;50.854;2.860;2023-03-29T05:08:09;5.28;;;3.30;;
78844;SDS011;68195;50.854;2.860;2023-03-29T05:10:35;5.47;;;3.80;;
78844;SDS011;68195;50.854;2.860;2023-03-29T05:13:03;4.88;;;3.20;;
78844;SDS011;68195;50.854;2.860;2023-03-29T05:15:31;5.55;;;3.75;;
78844;SDS011;68195;50.854;2.860;2023-03-29T05:17:56;5.65;;;3.50;;
78844;SDS011;68195;50.854;2.860;2023-03-29T05:22:51;5.70;;;2.90;;
78844;SDS011;68195;50.854;2.860;2023-03-29T05:25:17;5.95;;;3.80;;
78844;SDS011;68195;50.854;2.860;2023-03-29T05:27:43;6.25;;;3.33;;
78844;SDS011;68195;50.854;2.860;2023-03-29T05:32:36;7.05;;;3.40;;
78844;SDS011;68195;50.854;2.860;2023-03-29T05:35:02;6.78;;;3.63;;
78844;SDS011;68195;50.854;2.860;2023-03-29T05:37:28;5.50;;;3.33;;
78844;SDS011;68195;50.854;2.860;2023-03-29T05:39:53;5.63;;;3.38;;
78844;SDS011;68195;50.854;2.860;2023-03-29T05:42:19;3.97;;;3.10;;
78844;SDS011;68195;50.854;2.860;2023-03-29T05:44:46;5.95;;;3.17;;
78844;SDS011;68195;50.854;2.860;2023-03-29T05:47:14;8.38;;;3.78;;
78844;SDS011;68195;50.854;2.860;2023-03-29T05:49:42;4.65;;;3.30;;
78844;SDS011;68195;50.854;2.860;2023-03-29T05:52:10;5.43;;;2.90;;
78844;SDS011;68195;50.854;2.860;2023-03-29T05:54:37;7.72;;;3.92;;
78844;SDS011;68195;50.854;2.860;2023-03-29T05:57:05;4.40;;;3.05;;
78844;SDS011;68195;50.854;2.860;2023-03-29T05:59:31;7.82;;;3.83;;
78844;SDS011;68195;50.854;2.860;2023-03-29T06:01:57;4.78;;;3.50;;
78844;SDS011;68195;50.854;2.860;2023-03-29T06:04:24;6.10;;;3.30;;
78844;SDS011;68195;50.854;2.860;2023-03-29T06:06:50;5.75;;;3.42;;
78844;SDS011;68195;50.854;2.860;2023-03-29T06:09:17;4.05;;;2.70;;
78844;SDS011;68195;50.854;2.860;2023-03-29T06:11:46;5.10;;;3.17;;
78844;SDS011;68195;50.854;2.860;2023-03-29T06:14:11;7.30;;;3.80;;
78844;SDS011;68195;50.854;2.860;2023-03-29T06:16:39;5.63;;;3.80;;
78844;SDS011;68195;50.854;2.860;2023-03-29T06:19:05;8.63;;;4.30;;
78844;SDS011;68195;50.854;2.860;2023-03-29T06:21:33;6.13;;;3.97;;
78844;SDS011;68195;50.854;2.860;2023-03-29T06:23:59;6.22;;;3.72;;
78844;SDS011;68195;50.854;2.860;2023-03-29T06:26:24;8.00;;;3.67;;
78844;SDS011;68195;50.854;2.860;2023-03-29T06:28:52;5.72;;;3.67;;
78844;SDS011;68195;50.854;2.860;2023-03-29T06:31:17;7.75;;;3.90;;
78844;SDS011;68195;50.854;2.860;2023-03-29T06:33:43;8.32;;;3.97;;
78844;SDS011;68195;50.854;2.860;2023-03-29T06:36:11;7.00;;;4.30;;
78844;SDS011;68195;50.854;2.860;2023-03-29T06:38:39;6.95;;;3.58;;
78844;SDS011;68195;50.854;2.860;2023-03-29T06:41:06;9.25;;;3.78;;
78844;SDS011;68195;50.854;2.860;2023-03-29T06:43:34;8.52;;;4.18;;
78844;SDS011;68195;50.854;2.860;2023-03-29T06:46:06;6.60;;;3.42;;
78844;SDS011;68195;50.854;2.860;2023-03-29T06:48:35;5.25;;;3.75;;
78844;SDS011;68195;50.854;2.860;2023-03-29T06:51:07;5.60;;;3.42;;
78844;SDS011;68195;50.854;2.860;2023-03-29T06:53:32;4.72;;;3.65;;
78844;SDS011;68195;50.854;2.860;2023-03-29T06:55:58;7.70;;;4.05;;
78844;SDS011;68195;50.854;2.860;2023-03-29T06:58:24;7.10;;;4.00;;
78844;SDS011;68195;50.854;2.860;2023-03-29T07:00:51;6.85;;;4.05;;
78844;SDS011;68195;50.854;2.860;2023-03-29T07:03:17;7.22;;;4.13;;
78844;SDS011;68195;50.854;2.860;2023-03-29T07:05:47;5.88;;;3.95;;
78844;SDS011;68195;50.854;2.860;2023-03-29T07:08:15;5.47;;;3.13;;
78844;SDS011;68195;50.854;2.860;2023-03-29T07:10:46;5.78;;;3.78;;
78844;SDS011;68195;50.854;2.860;2023-03-29T07:13:16;8.13;;;4.30;;
78844;SDS011;68195;50.854;2.860;2023-03-29T07:15:42;9.27;;;4.20;;
78844;SDS011;68195;50.854;2.860;2023-03-29T07:18:12;7.45;;;4.13;;
78844;SDS011;68195;50.854;2.860;2023-03-29T07:20:43;9.70;;;4.72;;
78844;SDS011;68195;50.854;2.860;2023-03-29T07:23:08;8.13;;;3.92;;
78844;SDS011;68195;50.854;2.860;2023-03-29T07:25:34;7.28;;;4.32;;
78844;SDS011;68195;50.854;2.860;2023-03-29T07:28:01;6.63;;;3.40;;
78844;SDS011;68195;50.854;2.860;2023-03-29T07:30:31;7.53;;;4.35;;
78844;SDS011;68195;50.854;2.860;2023-03-29T07:32:56;8.45;;;3.83;;
78844;SDS011;68195;50.854;2.860;2023-03-29T07:35:23;6.05;;;3.95;;
78844;SDS011;68195;50.854;2.860;2023-03-29T07:37:49;6.90;;;4.28;;
78844;SDS011;68195;50.854;2.860;2023-03-29T07:40:17;7.80;;;4.70;;
78844;SDS011;68195;50.854;2.860;2023-03-29T07:42:50;7.57;;;4.45;;
78844;SDS011;68195;50.854;2.860;2023-03-29T07:45:21;6.82;;;4.20;;
78844;SDS011;68195;50.854;2.860;2023-03-29T07:47:48;7.75;;;4.45;;
78844;SDS011;68195;50.854;2.860;2023-03-29T07:50:18;8.75;;;4.05;;
78844;SDS011;68195;50.854;2.860;2023-03-29T07:52:43;9.48;;;5.43;;
78844;SDS011;68195;50.854;2.860;2023-03-29T07:57:36;8.23;;;4.50;;
78844;SDS011;68195;50.854;2.860;2023-03-29T08:00:02;8.82;;;4.80;;
78844;SDS011;68195;50.854;2.860;2023-03-29T08:02:55;6.85;;;4.25;;
78844;SDS011;68195;50.854;2.860;2023-03-29T08:05:23;7.53;;;4.05;;
78844;SDS011;68195;50.854;2.860;2023-03-29T08:07:48;10.15;;;4.57;;
78844;SDS011;68195;50.854;2.860;2023-03-29T08:10:15;6.45;;;4.03;;
78844;SDS011;68195;50.854;2.860;2023-03-29T08:12:43;8.13;;;4.85;;
78844;SDS011;68195;50.854;2.860;2023-03-29T08:15:12;7.15;;;5.30;;
78844;SDS011;68195;50.854;2.860;2023-03-29T08:17:38;7.22;;;5.05;;
78844;SDS011;68195;50.854;2.860;2023-03-29T08:20:04;8.80;;;4.53;;
78844;SDS011;68195;50.854;2.860;2023-03-29T08:22:31;5.75;;;3.85;;
78844;SDS011;68195;50.854;2.860;2023-03-29T08:24:57;8.00;;;4.32;;
78844;SDS011;68195;50.854;2.860;2023-03-29T08:27:23;8.13;;;4.53;;
78844;SDS011;68195;50.854;2.860;2023-03-29T08:29:48;7.63;;;4.30;;
78844;SDS011;68195;50.854;2.860;2023-03-29T08:34:40;8.50;;;4.60;;
78844;SDS011;68195;50.854;2.860;2023-03-29T08:37:08;9.27;;;5.00;;
78844;SDS011;68195;50.854;2.860;2023-03-29T08:39:35;7.43;;;4.80;;
78844;SDS011;68195;50.854;2.860;2023-03-29T08:49:47;9.30;;;4.72;;
78844;SDS011;68195;50.854;2.860;2023-03-29T08:55:06;7.35;;;4.63;;
78844;SDS011;68195;50.854;2.860;2023-03-29T08:57:44;5.30;;;3.92;;
78844;SDS011;68195;50.854;2.860;2023-03-29T09:00:24;9.18;;;4.95;;
78844;SDS011;68195;50.854;2.860;2023-03-29T09:03:23;13.55;;;5.35;;
78844;SDS011;68195;50.854;2.860;2023-03-29T09:05:58;9.57;;;4.80;;
78844;SDS011;68195;50.854;2.860;2023-03-29T09:08:28;9.05;;;4.80;;
78844;SDS011;68195;50.854;2.860;2023-03-29T09:19:31;8.48;;;4.72;;
78844;SDS011;68195;50.854;2.860;2023-03-29T09:30:41;6.22;;;4.15;;
78844;SDS011;68195;50.854;2.860;2023-03-29T09:33:51;7.28;;;5.20;;
78844;SDS011;68195;50.854;2.860;2023-03-29T09:36:29;6.10;;;3.92;;
78844;SDS011;68195;50.854;2.860;2023-03-29T09:39:04;8.55;;;4.50;;
78844;SDS011;68195;50.854;2.860;2023-03-29T09:41:40;7.93;;;4.35;;
78844;SDS011;68195;50.854;2.860;2023-03-29T09:44:14;6.53;;;4.38;;
78844;SDS011;68195;50.854;2.860;2023-03-29T09:46:48;5.85;;;3.85;;
78844;SDS011;68195;50.854;2.860;2023-03-29T09:49:20;6.88;;;4.05;;
78844;SDS011;68195;50.854;2.860;2023-03-29T09:51:50;6.22;;;3.72;;
78844;SDS011;68195;50.854;2.860;2023-03-29T09:56:48;6.43;;;3.30;;
78844;SDS011;68195;50.854;2.860;2023-03-29T09:59:13;5.95;;;3.50;;
78844;SDS011;68195;50.854;2.860;2023-03-29T10:01:40;7.80;;;3.53;;
78844;SDS011;68195;50.854;2.860;2023-03-29T10:04:09;9.05;;;4.28;;
78844;SDS011;68195;50.854;2.860;2023-03-29T10:06:41;7.50;;;3.63;;
78844;SDS011;68195;50.854;2.860;2023-03-29T10:09:18;5.50;;;3.53;;
78844;SDS011;68195;50.854;2.860;2023-03-29T10:11:46;7.53;;;4.10;;
78844;SDS011;68195;50.854;2.860;2023-03-29T10:14:19;10.20;;;3.38;;
78844;SDS011;68195;50.854;2.860;2023-03-29T10:17:02;7.45;;;4.10;;
78844;SDS011;68195;50.854;2.860;2023-03-29T10:19:31;6.82;;;3.42;;
78844;SDS011;68195;50.854;2.860;2023-03-29T10:22:05;4.82;;;3.00;;
78844;SDS011;68195;50.854;2.860;2023-03-29T10:24:37;6.70;;;2.88;;
78844;SDS011;68195;50.854;2.860;2023-03-29T10:27:03;6.75;;;3.50;;
78844;SDS011;68195;50.854;2.860;2023-03-29T10:29:37;6.28;;;3.50;;
78844;SDS011;68195;50.854;2.860;2023-03-29T10:32:16;7.50;;;3.83;;
78844;SDS011;68195;50.854;2.860;2023-03-29T10:34:50;8.82;;;3.65;;
78844;SDS011;68195;50.854;2.860;2023-03-29T10:37:19;6.22;;;3.33;;
78844;SDS011;68195;50.854;2.860;2023-03-29T10:39:47;8.63;;;3.13;;
78844;SDS011;68195;50.854;2.860;2023-03-29T10:42:15;6.13;;;3.35;;
78844;SDS011;68195;50.854;2.860;2023-03-29T10:44:42;5.13;;;3.20;;
78844;SDS011;68195;50.854;2.860;2023-03-29T10:47:18;5.30;;;3.00;;
78844;SDS011;68195;50.854;2.860;2023-03-29T10:49:45;4.60;;;3.00;;
78844;SDS011;68195;50.854;2.860;2023-03-29T10:52:15;4.78;;;3.30;;
78844;SDS011;68195;50.854;2.860;2023-03-29T10:54:44;8.80;;;3.35;;
78844;SDS011;68195;50.854;2.860;2023-03-29T10:57:13;5.28;;;2.92;;
78844;SDS011;68195;50.854;2.860;2023-03-29T10:59:49;3.92;;;2.42;;
78844;SDS011;68195;50.854;2.860;2023-03-29T11:20:58;5.30;;;2.55;;
78844;SDS011;68195;50.854;2.860;2023-03-29T11:31:27;3.38;;;2.30;;
78844;SDS011;68195;50.854;2.860;2023-03-29T11:37:22;4.78;;;2.65;;
78844;SDS011;68195;50.854;2.860;2023-03-29T11:42:53;4.20;;;2.55;;
78844;SDS011;68195;50.854;2.860;2023-03-29T11:45:27;4.13;;;2.88;;
78844;SDS011;68195;50.854;2.860;2023-03-29T11:47:56;3.25;;;2.63;;
78844;SDS011;68195;50.854;2.860;2023-03-29T11:50:29;5.43;;;2.20;;
78844;SDS011;68195;50.854;2.860;2023-03-29T11:53:10;6.80;;;2.45;;
78844;SDS011;68195;50.854;2.860;2023-03-29T11:55:47;4.53;;;2.50;;
78844;SDS011;68195;50.854;2.860;2023-03-29T12:00:50;4.63;;;2.60;;
78844;SDS011;68195;50.854;2.860;2023-03-29T12:06:19;3.05;;;2.25;;
78844;SDS011;68195;50.854;2.860;2023-03-29T12:08:59;4.43;;;2.50;;
78844;SDS011;68195;50.854;2.860;2023-03-29T12:11:29;3.10;;;2.47;;
78844;SDS011;68195;50.854;2.860;2023-03-29T12:14:18;4.35;;;2.50;;
78844;SDS011;68195;50.854;2.860;2023-03-29T12:16:50;4.75;;;2.40;;
78844;SDS011;68195;50.854;2.860;2023-03-29T12:19:25;4.25;;;2.50;;
78844;SDS011;68195;50.854;2.860;2023-03-29T12:21:55;3.75;;;2.28;;
78844;SDS011;68195;50.854;2.860;2023-03-29T12:24:24;5.32;;;2.45;;
78844;SDS011;68195;50.854;2.860;2023-03-29T12:34:43;4.80;;;2.75;;
78844;SDS011;68195;50.854;2.860;2023-03-29T12:40:17;4.57;;;2.78;;
78844;SDS011;68195;50.854;2.860;2023-03-29T12:45:18;5.25;;;3.03;;
78844;SDS011;68195;50.854;2.860;2023-03-29T12:47:53;3.92;;;2.78;;
78844;SDS011;68195;50.854;2.860;2023-03-29T12:52:56;4.32;;;3.55;;
78844;SDS011;68195;50.854;2.860;2023-03-29T12:58:02;6.28;;;3.38;;
78844;SDS011;68195;50.854;2.860;2023-03-29T13:03:28;9.85;;;4.85;;
78844;SDS011;68195;50.854;2.860;2023-03-29T13:06:01;5.97;;;3.72;;
78844;SDS011;68195;50.854;2.860;2023-03-29T13:08:33;5.47;;;4.22;;
78844;SDS011;68195;50.854;2.860;2023-03-29T13:10:59;5.93;;;4.30;;
78844;SDS011;68195;50.854;2.860;2023-03-29T13:13:34;6.22;;;4.32;;
78844;SDS011;68195;50.854;2.860;2023-03-29T13:16:35;6.80;;;4.32;;
78844;SDS011;68195;50.854;2.860;2023-03-29T13:24:28;5.35;;;4.32;;
78844;SDS011;68195;50.854;2.860;2023-03-29T13:29:51;5.60;;;4.82;;
78844;SDS011;68195;50.854;2.860;2023-03-29T13:38:48;9.48;;;5.43;;
78844;SDS011;68195;50.854;2.860;2023-03-29T13:43:58;8.15;;;5.75;;
78844;SDS011;68195;50.854;2.860;2023-03-29T13:49:18;8.60;;;5.63;;
78844;SDS011;68195;50.854;2.860;2023-03-29T13:59:46;9.68;;;5.38;;
78844;SDS011;68195;50.854;2.860;2023-03-29T14:04:51;7.63;;;5.28;;
78844;SDS011;68195;50.854;2.860;2023-03-29T14:07:19;8.05;;;5.70;;
78844;SDS011;68195;50.854;2.860;2023-03-29T14:09:52;9.57;;;5.47;;
78844;SDS011;68195;50.854;2.860;2023-03-29T14:12:27;6.82;;;4.72;;
78844;SDS011;68195;50.854;2.860;2023-03-29T14:15:00;7.15;;;4.85;;
78844;SDS011;68195;50.854;2.860;2023-03-29T14:17:30;8.90;;;6.13;;
78844;SDS011;68195;50.854;2.860;2023-03-29T14:19:57;8.23;;;5.25;;
78844;SDS011;68195;50.854;2.860;2023-03-29T14:22:29;10.05;;;5.68;;
78844;SDS011;68195;50.854;2.860;2023-03-29T14:25:04;9.85;;;5.97;;
78844;SDS011;68195;50.854;2.860;2023-03-29T14:27:35;9.35;;;5.72;;
78844;SDS011;68195;50.854;2.860;2023-03-29T14:30:16;8.75;;;5.70;;
78844;SDS011;68195;50.854;2.860;2023-03-29T14:32:54;7.95;;;5.70;;
78844;SDS011;68195;50.854;2.860;2023-03-29T14:35:25;11.45;;;6.90;;
78844;SDS011;68195;50.854;2.860;2023-03-29T14:37:55;7.45;;;6.03;;
78844;SDS011;68195;50.854;2.860;2023-03-29T14:40:21;9.02;;;6.45;;
78844;SDS011;68195;50.854;2.860;2023-03-29T14:42:51;10.38;;;5.95;;
78844;SDS011;68195;50.854;2.860;2023-03-29T14:45:23;10.43;;;5.18;;
78844;SDS011;68195;50.854;2.860;2023-03-29T14:47:51;7.97;;;5.40;;
78844;SDS011;68195;50.854;2.860;2023-03-29T14:50:20;7.03;;;4.38;;
78844;SDS011;68195;50.854;2.860;2023-03-29T14:52:52;6.65;;;4.55;;
78844;SDS011;68195;50.854;2.860;2023-03-29T14:55:20;6.47;;;4.20;;
78844;SDS011;68195;50.854;2.860;2023-03-29T14:57:48;9.95;;;4.47;;
78844;SDS011;68195;50.854;2.860;2023-03-29T15:00:20;9.20;;;3.83;;
78844;SDS011;68195;50.854;2.860;2023-03-29T15:03:00;6.95;;;3.90;;
78844;SDS011;68195;50.854;2.860;2023-03-29T15:05:39;6.15;;;3.35;;
78844;SDS011;68195;50.854;2.860;2023-03-29T15:08:15;6.00;;;3.55;;
78844;SDS011;68195;50.854;2.860;2023-03-29T15:10:45;9.55;;;3.90;;
78844;SDS011;68195;50.854;2.860;2023-03-29T15:15:42;7.80;;;3.60;;
78844;SDS011;68195;50.854;2.860;2023-03-29T15:18:09;7.32;;;3.67;;
78844;SDS011;68195;50.854;2.860;2023-03-29T15:20:42;5.25;;;3.63;;
78844;SDS011;68195;50.854;2.860;2023-03-29T15:26:28;4.85;;;3.42;;
78844;SDS011;68195;50.854;2.860;2023-03-29T15:28:46;6.18;;;3.80;;
78844;SDS011;68195;50.854;2.860;2023-03-29T15:31:20;6.45;;;3.90;;
78844;SDS011;68195;50.854;2.860;2023-03-29T15:34:00;6.50;;;3.83;;
78844;SDS011;68195;50.854;2.860;2023-03-29T15:36:28;7.65;;;4.00;;
78844;SDS011;68195;50.854;2.860;2023-03-29T15:38:55;8.15;;;3.97;;
78844;SDS011;68195;50.854;2.860;2023-03-29T15:41:25;7.65;;;3.83;;
78844;SDS011;68195;50.854;2.860;2023-03-29T15:43:54;9.27;;;4.43;;
78844;SDS011;68195;50.854;2.860;2023-03-29T15:46:20;8.10;;;4.70;;
78844;SDS011;68195;50.854;2.860;2023-03-29T15:51:11;6.55;;;3.85;;
78844;SDS011;68195;50.854;2.860;2023-03-29T15:53:37;5.97;;;4.07;;
78844;SDS011;68195;50.854;2.860;2023-03-29T15:56:11;6.78;;;4.18;;
78844;SDS011;68195;50.854;2.860;2023-03-29T15:58:41;5.40;;;3.65;;
78844;SDS011;68195;50.854;2.860;2023-03-29T16:01:12;5.65;;;4.00;;
78844;SDS011;68195;50.854;2.860;2023-03-29T16:03:47;6.05;;;4.53;;
78844;SDS011;68195;50.854;2.860;2023-03-29T16:06:14;8.55;;;4.93;;
78844;SDS011;68195;50.854;2.860;2023-03-29T16:08:41;8.02;;;3.83;;
78844;SDS011;68195;50.854;2.860;2023-03-29T16:11:10;8.82;;;4.13;;
78844;SDS011;68195;50.854;2.860;2023-03-29T16:13:35;8.38;;;4.13;;
78844;SDS011;68195;50.854;2.860;2023-03-29T16:16:03;7.25;;;4.13;;
78844;SDS011;68195;50.854;2.860;2023-03-29T16:20:56;7.83;;;3.77;;
78844;SDS011;68195;50.854;2.860;2023-03-29T16:23:27;7.25;;;3.78;;
78844;SDS011;68195;50.854;2.860;2023-03-29T16:28:17;7.25;;;4.43;;
78844;SDS011;68195;50.854;2.860;2023-03-29T16:30:45;7.35;;;3.83;;
78844;SDS011;68195;50.854;2.860;2023-03-29T16:33:11;9.70;;;3.42;;
78844;SDS011;68195;50.854;2.860;2023-03-29T16:38:04;7.05;;;3.72;;
78844;SDS011;68195;50.854;2.860;2023-03-29T16:40:33;5.43;;;3.53;;
78844;SDS011;68195;50.854;2.860;2023-03-29T16:43:03;8.85;;;3.65;;
78844;SDS011;68195;50.854;2.860;2023-03-29T16:45:29;8.93;;;4.15;;
78844;SDS011;68195;50.854;2.860;2023-03-29T16:50:22;7.97;;;3.67;;
78844;SDS011;68195;50.854;2.860;2023-03-29T16:52:50;6.43;;;3.42;;
78844;SDS011;68195;50.854;2.860;2023-03-29T16:55:18;7.93;;;3.72;;
78844;SDS011;68195;50.854;2.860;2023-03-29T16:57:46;7.30;;;3.88;;
78844;SDS011;68195;50.854;2.860;2023-03-29T17:00:15;7.55;;;3.63;;
78844;SDS011;68195;50.854;2.860;2023-03-29T17:02:46;7.03;;;4.25;;
78844;SDS011;68195;50.854;2.860;2023-03-29T17:05:15;6.57;;;3.22;;
78844;SDS011;68195;50.854;2.860;2023-03-29T17:07:41;7.85;;;3.60;;
78844;SDS011;68195;50.854;2.860;2023-03-29T17:10:09;7.45;;;3.50;;
78844;SDS011;68195;50.854;2.860;2023-03-29T17:12:38;6.28;;;3.03;;
78844;SDS011;68195;50.854;2.860;2023-03-29T17:15:04;7.90;;;3.72;;
78844;SDS011;68195;50.854;2.860;2023-03-29T17:17:33;8.80;;;3.20;;
78844;SDS011;68195;50.854;2.860;2023-03-29T17:22:24;6.67;;;3.87;;
78844;SDS011;68195;50.854;2.860;2023-03-29T17:24:50;9.80;;;4.22;;
78844;SDS011;68195;50.854;2.860;2023-03-29T17:27:18;7.03;;;3.05;;
78844;SDS011;68195;50.854;2.860;2023-03-29T17:29:44;6.15;;;3.40;;
78844;SDS011;68195;50.854;2.860;2023-03-29T17:34:35;9.27;;;3.33;;
78844;SDS011;68195;50.854;2.860;2023-03-29T17:37:01;8.68;;;3.20;;
78844;SDS011;68195;50.854;2.860;2023-03-29T17:39:31;8.93;;;3.00;;
78844;SDS011;68195;50.854;2.860;2023-03-29T17:42:01;5.50;;;3.10;;
78844;SDS011;68195;50.854;2.860;2023-03-29T17:44:27;7.38;;;3.13;;
78844;SDS011;68195;50.854;2.860;2023-03-29T17:46:59;9.07;;;3.05;;
78844;SDS011;68195;50.854;2.860;2023-03-29T17:49:27;8.57;;;4.05;;
78844;SDS011;68195;50.854;2.860;2023-03-29T17:51:52;8.00;;;3.72;;
78844;SDS011;68195;50.854;2.860;2023-03-29T17:56:48;6.50;;;3.58;;
78844;SDS011;68195;50.854;2.860;2023-03-29T17:59:14;7.32;;;3.17;;
78844;SDS011;68195;50.854;2.860;2023-03-29T18:01:42;7.43;;;4.03;;
78844;SDS011;68195;50.854;2.860;2023-03-29T18:04:08;7.65;;;3.55;;
78844;SDS011;68195;50.854;2.860;2023-03-29T18:06:36;7.72;;;3.80;;